Time;durP1;ratioP1;P1;durP2;ratioP2;P2;SDS_P1;SDS_P2;PMS_P1;PMS_P2;Temp;Humidity;BMP_temperature;BMP_pressure;BME280_temperature;BME280_humidity;BME280_pressure;Samples;Min_cycle;Max_cycle;Signal;HPM_P1;HPM_P2
2023/05/24 00:01:06;;;;;;;15.73;7.93;;;;;;;13.73;92.84;94984.38;5031090;28;20276;-73
2023/05/24 00:03:33;;;;;;;15.53;7.87;;;;;;;13.67;93.99;94980.00;5035045;28;20773;-74
2023/05/24 00:06:00;;;;;;;19.63;8.10;;;;;;;13.56;93.93;94982.53;5039335;28;20238;-74
2023/05/24 00:08:26;;;;;;;14.00;7.73;;;;;;;13.54;94.64;94985.38;5000901;28;20238;-74
2023/05/24 00:10:51;;;;;;;15.10;7.30;;;;;;;13.66;94.61;94983.63;5032147;28;20233;-74
2023/05/24 00:13:16;;;;;;;16.90;7.60;;;;;;;13.37;94.84;94977.22;5019946;28;20632;-74
2023/05/24 00:15:42;;;;;;;18.63;7.77;;;;;;;13.41;95.42;94978.41;5015950;28;20234;-74
2023/05/24 00:18:07;;;;;;;17.30;8.17;;;;;;;13.54;95.40;94976.69;5027426;28;20222;-73
2023/05/24 00:20:33;;;;;;;14.67;8.07;;;;;;;13.62;93.94;94979.84;5028961;28;20233;-73
2023/05/24 00:22:58;;;;;;;14.47;7.60;;;;;;;13.59;93.80;94975.00;5035699;28;20237;-75
2023/05/24 00:25:24;;;;;;;13.07;7.67;;;;;;;13.47;94.71;94976.72;5035818;28;20237;-75
2023/05/24 00:27:49;;;;;;;18.67;7.87;;;;;;;13.41;94.25;94974.97;5010558;28;20283;-74
2023/05/24 00:30:15;;;;;;;15.23;7.80;;;;;;;13.42;94.18;94969.50;5032401;28;20325;-74
2023/05/24 00:32:40;;;;;;;15.40;7.27;;;;;;;13.63;93.43;94972.75;5018208;28;20241;-74
2023/05/24 00:35:06;;;;;;;16.13;7.57;;;;;;;13.49;93.06;94974.72;5018072;28;20234;-74
2023/05/24 00:37:32;;;;;;;13.83;7.70;;;;;;;13.57;92.94;94970.97;5023978;28;20282;-76
2023/05/24 00:39:57;;;;;;;14.53;6.97;;;;;;;13.64;91.10;94969.09;5009682;28;20314;-74
2023/05/24 00:42:23;;;;;;;14.07;6.63;;;;;;;13.65;91.27;94968.09;5041644;28;20252;-74
2023/05/24 00:44:48;;;;;;;10.57;6.70;;;;;;;13.61;92.24;94962.47;5018538;28;20953;-74
2023/05/24 00:47:14;;;;;;;11.60;6.90;;;;;;;13.65;91.30;94962.81;5033927;28;20242;-74
2023/05/24 00:49:40;;;;;;;13.90;6.80;;;;;;;13.69;91.04;94969.25;5033349;28;21054;-74
2023/05/24 00:52:05;;;;;;;13.07;6.90;;;;;;;13.62;91.06;94971.94;5035188;28;20250;-74
2023/05/24 00:54:31;;;;;;;11.40;6.53;;;;;;;13.52;90.86;94966.38;5019015;28;20222;-75
2023/05/24 00:56:56;;;;;;;11.90;6.70;;;;;;;13.23;92.10;94975.72;5034491;28;20237;-75
2023/05/24 00:59:22;;;;;;;12.27;6.60;;;;;;;13.36;92.30;94967.75;5024362;28;20690;-72
2023/05/24 01:01:48;;;;;;;9.43;6.00;;;;;;;13.56;91.61;94961.50;5025827;28;20274;-73
2023/05/24 01:04:13;;;;;;;15.70;6.80;;;;;;;13.21;93.07;94962.00;5015888;28;20291;-73
2023/05/24 01:07:08;;;;;;;11.87;6.80;;;;;;;13.00;94.70;94964.94;5034776;28;20249;-74
2023/05/24 01:09:35;;;;;;;12.17;7.00;;;;;;;12.94;94.93;94970.25;5037708;28;20233;-73
2023/05/24 01:12:23;;;;;;;11.30;7.03;;;;;;;13.05;95.43;94969.56;5018790;28;20258;-74
2023/05/24 01:15:04;;;;;;;14.07;7.20;;;;;;;13.13;94.96;94974.59;5034708;28;20234;-75
2023/05/24 01:17:41;;;;;;;11.10;6.83;;;;;;;12.98;95.59;94972.25;5032598;28;20232;-74
2023/05/24 01:20:09;;;;;;;11.43;7.47;;;;;;;13.00;96.14;94979.91;5019378;28;20624;-73
2023/05/24 01:23:17;;;;;;;15.80;7.13;;;;;;;13.01;95.24;94984.97;5033474;28;20271;-73
2023/05/24 01:26:11;;;;;;;13.53;7.07;;;;;;;13.04;95.51;94987.13;5032325;28;20256;-74
2023/05/24 01:28:37;;;;;;;10.17;6.87;;;;;;;13.13;95.15;94987.75;5023960;28;20241;-73
2023/05/24 01:31:02;;;;;;;11.30;7.00;;;;;;;13.27;94.08;94992.69;5033987;28;20707;-74
2023/05/24 01:33:28;;;;;;;11.37;7.20;;;;;;;12.97;95.32;94989.00;5019212;28;20252;-74
2023/05/24 01:35:53;;;;;;;12.23;6.87;;;;;;;12.97;95.39;94986.38;5005930;28;20238;-73
2023/05/24 01:38:19;;;;;;;12.07;6.90;;;;;;;13.04;95.30;94987.13;5017678;28;20234;-73
2023/05/24 01:40:44;;;;;;;12.03;7.03;;;;;;;12.92;95.65;94985.44;5018561;28;20225;-73
2023/05/24 01:43:19;;;;;;;13.27;7.00;;;;;;;12.83;95.47;94979.59;5040541;28;20237;-74
2023/05/24 01:45:57;;;;;;;12.50;6.90;;;;;;;12.88;96.47;94973.72;5032545;28;20273;-74
2023/05/24 01:48:42;;;;;;;12.83;7.13;;;;;;;13.13;95.09;94977.22;5041353;28;20285;-74
2023/05/24 01:51:10;;;;;;;15.80;7.73;;;;;;;13.23;93.83;94975.72;5031912;28;20226;-73
2023/05/24 01:53:40;;;;;;;14.50;7.40;;;;;;;12.99;95.01;94976.47;5031667;28;20234;-74
2023/05/24 01:56:05;;;;;;;12.90;7.37;;;;;;;12.93;95.73;94974.69;5031746;28;20746;-73
2023/05/24 01:58:31;;;;;;;13.77;7.07;;;;;;;13.04;95.70;94974.00;5032067;28;20265;-74
2023/05/24 02:00:56;;;;;;;13.50;7.27;;;;;;;13.30;94.47;94973.84;5033813;28;20233;-74
2023/05/24 02:03:22;;;;;;;15.43;7.70;;;;;;;13.32;93.75;94973.63;5031460;28;21139;-74
2023/05/24 02:05:47;;;;;;;11.53;7.03;;;;;;;13.06;94.16;94969.41;5041368;28;20234;-74
2023/05/24 02:08:13;;;;;;;14.63;7.30;;;;;;;13.03;94.80;94984.75;5015200;28;20238;-73
2023/05/24 02:10:39;;;;;;;16.30;7.23;;;;;;;12.77;95.97;94977.84;5025497;28;20238;-74
2023/05/24 02:13:05;;;;;;;12.87;7.27;;;;;;;12.55;97.08;94969.47;5029525;28;20251;-74
2023/05/24 02:15:31;;;;;;;12.70;7.17;;;;;;;12.71;97.30;94970.78;5008676;28;20235;-74
2023/05/24 02:17:57;;;;;;;14.17;7.60;;;;;;;12.36;98.96;94972.19;5014834;28;20280;-74
2023/05/24 02:20:23;;;;;;;12.20;7.07;;;;;;;12.48;98.90;94971.34;5019210;28;20245;-75
2023/05/24 02:22:48;;;;;;;12.13;7.17;;;;;;;12.59;98.56;94967.22;5022036;28;20612;-74
2023/05/24 02:25:14;;;;;;;13.30;7.27;;;;;;;12.76;97.05;94958.66;5030630;28;20703;-74
2023/05/24 02:27:40;;;;;;;12.07;7.00;;;;;;;12.65;97.14;94961.97;5014295;28;20243;-74
2023/05/24 02:30:07;;;;;;;12.13;7.50;;;;;;;12.26;99.07;94971.81;5027253;28;20846;-74
2023/05/24 02:32:33;;;;;;;14.80;7.80;;;;;;;12.40;99.58;94968.13;5016641;28;20523;-73
2023/05/24 02:35:00;;;;;;;21.00;8.00;;;;;;;12.22;99.99;94971.44;5013832;28;20311;-75
2023/05/24 02:37:26;;;;;;;19.03;8.53;;;;;;;12.41;99.73;94969.75;5014667;28;20236;-74
2023/05/24 02:39:52;;;;;;;16.60;7.87;;;;;;;12.49;99.45;94972.16;5016076;28;20317;-74
2023/05/24 02:42:17;;;;;;;18.03;7.83;;;;;;;12.55;98.45;94964.22;5024867;28;20736;-75
2023/05/24 02:44:46;;;;;;;18.13;8.03;;;;;;;12.58;98.40;94968.25;5027184;28;20260;-74
2023/05/24 02:47:12;;;;;;;14.40;7.73;;;;;;;12.49;98.88;94969.53;5029737;28;20324;-74
2023/05/24 02:49:37;;;;;;;19.40;8.20;;;;;;;12.58;98.09;94963.81;5027516;28;20389;-74
2023/05/24 02:52:04;;;;;;;15.53;8.13;;;;;;;12.42;98.58;94972.16;5029162;28;20237;-74
2023/05/24 02:54:29;;;;;;;16.67;8.13;;;;;;;12.37;99.15;94961.47;5024071;28;20792;-74
2023/05/24 02:56:55;;;;;;;16.73;8.40;;;;;;;12.56;97.69;94965.03;5031076;28;20237;-72
2023/05/24 02:59:21;;;;;;;19.77;8.37;;;;;;;12.58;97.85;94961.19;5030025;28;20722;-72
2023/05/24 03:01:47;;;;;;;18.73;8.23;;;;;;;12.55;97.89;94968.66;5030251;28;20237;-73
2023/05/24 03:04:12;;;;;;;17.97;7.97;;;;;;;12.57;98.00;94964.00;5034002;28;20260;-75
2023/05/24 03:06:38;;;;;;;13.90;7.40;;;;;;;12.71;97.70;94971.59;5025351;28;20237;-74
2023/05/24 03:09:04;;;;;;;17.03;8.20;;;;;;;12.57;98.06;94977.94;5031553;28;20229;-75
2023/05/24 03:11:29;;;;;;;15.30;8.10;;;;;;;12.34;99.75;94976.84;5045256;28;20631;-76
2023/05/24 03:13:55;;;;;;;14.30;8.00;;;;;;;12.34;99.47;94984.72;5037529;28;20225;-74
2023/05/24 03:16:20;;;;;;;16.47;8.30;;;;;;;12.41;99.40;94986.31;5033231;28;20238;-76
2023/05/24 03:18:46;;;;;;;15.40;8.00;;;;;;;12.33;99.75;94989.16;5043718;28;20237;-74
2023/05/24 03:21:11;;;;;;;12.73;7.80;;;;;;;12.28;100.00;94986.34;5015242;28;20233;-75
2023/05/24 03:23:37;;;;;;;18.07;8.47;;;;;;;12.19;100.00;94982.34;5032660;28;20263;-74
2023/05/24 03:26:03;;;;;;;15.97;8.00;;;;;;;12.19;100.00;94995.47;5030770;28;20234;-74
2023/05/24 03:28:28;;;;;;;15.67;7.90;;;;;;;12.15;100.00;94995.09;5033623;28;20237;-75
2023/05/24 03:30:54;;;;;;;17.23;7.77;;;;;;;12.43;100.00;94991.34;5032557;28;20638;-75
2023/05/24 03:33:20;;;;;;;15.17;7.80;;;;;;;12.50;99.33;94994.75;5032229;28;20309;-75
2023/05/24 03:35:45;;;;;;;17.73;7.67;;;;;;;12.61;98.90;95001.97;5035763;28;20681;-74
2023/05/24 03:38:11;;;;;;;15.27;7.60;;;;;;;12.57;98.92;94998.13;5020115;28;20964;-76
2023/05/24 03:40:37;;;;;;;15.47;8.00;;;;;;;12.46;99.45;94998.81;5023251;28;20240;-75
2023/05/24 03:43:02;;;;;;;17.07;8.10;;;;;;;12.66;99.30;95000.31;5032860;28;20241;-74
2023/05/24 03:45:28;;;;;;;16.33;8.13;;;;;;;12.27;100.00;95007.56;5033342;28;20320;-74
2023/05/24 03:47:53;;;;;;;17.07;8.30;;;;;;;12.39;100.00;95011.16;5034055;28;20333;-75
2023/05/24 03:50:19;;;;;;;14.00;8.30;;;;;;;12.60;100.00;95001.16;5008837;28;20230;-74
2023/05/24 03:52:46;;;;;;;16.73;8.43;;;;;;;12.44;100.00;95000.84;5038387;28;20269;-75
2023/05/24 03:55:11;;;;;;;16.13;7.90;;;;;;;12.75;99.99;94993.78;5015887;28;20242;-74
2023/05/24 03:57:36;;;;;;;14.13;7.80;;;;;;;12.79;99.87;94997.63;5007235;28;20306;-75
2023/05/24 04:00:05;;;;;;;16.03;8.10;;;;;;;12.88;99.09;94999.97;5016717;28;20347;-74
2023/05/24 04:02:31;;;;;;;12.97;7.50;;;;;;;12.90;97.98;94997.97;5032749;28;20230;-75
2023/05/24 04:04:56;;;;;;;14.33;7.73;;;;;;;13.00;97.73;95000.91;5033865;28;20230;-75
2023/05/24 04:07:23;;;;;;;16.90;7.57;;;;;;;13.10;97.47;95006.56;5032432;28;20233;-74
2023/05/24 04:09:49;;;;;;;15.67;7.13;;;;;;;13.08;96.99;95006.78;5034000;28;20693;-74
2023/05/24 04:12:14;;;;;;;14.80;7.87;;;;;;;13.23;95.81;95012.50;5006699;28;20263;-74
2023/05/24 04:14:40;;;;;;;12.77;7.60;;;;;;;13.07;97.02;95004.34;5033104;28;20996;-74
2023/05/24 04:17:06;;;;;;;14.47;7.67;;;;;;;13.12;96.59;95004.50;5020946;28;20230;-75
2023/05/24 04:19:32;;;;;;;13.63;7.53;;;;;;;13.27;96.34;95003.19;5026013;28;20627;-74
2023/05/24 04:21:57;;;;;;;11.83;7.40;;;;;;;13.23;97.33;95017.00;5024187;28;20230;-74
2023/05/24 04:24:23;;;;;;;16.13;7.90;;;;;;;13.43;95.06;95012.38;5012620;28;20230;-74
2023/05/24 04:26:49;;;;;;;21.70;8.03;;;;;;;13.62;93.76;95005.31;5029833;28;20241;-75
2023/05/24 04:29:14;;;;;;;18.23;8.63;;;;;;;13.55;95.15;95009.84;5033353;28;20238;-74
2023/05/24 04:31:42;;;;;;;17.10;8.50;;;;;;;13.51;96.05;95006.84;5037769;28;21093;-75
2023/05/24 04:34:08;;;;;;;16.67;7.83;;;;;;;13.54;95.14;95018.75;5015304;28;20226;-75
2023/05/24 04:36:34;;;;;;;20.17;8.40;;;;;;;13.27;95.99;95013.72;5032750;28;20268;-74
2023/05/24 04:39:03;;;;;;;14.40;8.30;;;;;;;13.47;94.68;95016.16;5024940;28;20243;-73
2023/05/24 04:41:30;;;;;;;15.63;7.90;;;;;;;13.65;94.22;95015.41;5033685;28;20245;-75
2023/05/24 04:43:58;;;;;;;18.73;8.33;;;;;;;13.86;92.98;95023.72;5019454;28;20240;-75
2023/05/24 04:46:24;;;;;;;18.50;8.83;;;;;;;13.88;93.81;95024.31;5008994;28;20240;-76
2023/05/24 04:48:50;;;;;;;15.93;8.40;;;;;;;13.74;95.14;95022.81;4999934;28;20250;-76
2023/05/24 04:51:15;;;;;;;16.07;8.90;;;;;;;13.96;91.61;95033.75;5023933;28;20234;-74
2023/05/24 04:53:41;;;;;;;21.67;9.30;;;;;;;14.05;93.48;95035.06;5024620;28;20238;-74
2023/05/24 04:56:07;;;;;;;19.60;8.87;;;;;;;14.08;93.13;95034.66;5020462;28;20294;-73
2023/05/24 04:58:33;;;;;;;23.27;9.70;;;;;;;14.66;89.55;95037.69;5027559;28;20241;-75
2023/05/24 05:01:00;;;;;;;20.23;8.97;;;;;;;15.75;83.76;95040.78;5014854;28;20336;-75
2023/05/24 05:03:25;;;;;;;14.63;8.30;;;;;;;16.67;79.13;95042.59;4999923;28;20356;-75
2023/05/24 05:05:51;;;;;;;19.47;8.67;;;;;;;16.79;78.89;95042.53;5032883;28;20793;-74
2023/05/24 05:08:17;;;;;;;16.37;8.50;;;;;;;17.69;74.20;95042.63;5020547;28;20618;-75
2023/05/24 05:10:42;;;;;;;14.90;8.40;;;;;;;16.26;78.71;95048.03;5002237;28;20226;-74
2023/05/24 05:13:08;;;;;;;18.03;8.67;;;;;;;15.99;82.27;95041.59;5031440;28;20320;-76
2023/05/24 05:15:34;;;;;;;14.47;8.43;;;;;;;17.60;75.47;95044.84;5033419;28;20218;-74
2023/05/24 05:17:59;;;;;;;13.90;8.10;;;;;;;19.99;66.96;95054.47;5033850;28;20638;-74
2023/05/24 05:20:24;;;;;;;16.33;9.43;;;;;;;20.64;63.26;95053.31;5021471;28;20425;-74
2023/05/24 05:22:50;;;;;;;15.47;8.77;;;;;;;20.93;62.08;95057.19;5035542;28;20228;-73
2023/05/24 05:25:16;;;;;;;15.93;8.57;;;;;;;19.90;65.40;95056.00;5026802;28;20229;-73
2023/05/24 05:27:41;;;;;;;16.53;8.73;;;;;;;20.07;65.05;95064.63;5018335;28;20771;-74
2023/05/24 05:30:07;;;;;;;15.47;8.97;;;;;;;20.51;62.15;95064.44;5020181;28;20222;-74
2023/05/24 05:32:33;;;;;;;15.03;9.47;;;;;;;18.76;67.36;95055.34;5019021;28;20626;-75
2023/05/24 05:34:58;;;;;;;17.10;9.17;;;;;;;17.60;71.86;95060.72;5030389;28;20234;-74
2023/05/24 05:37:24;;;;;;;17.30;9.33;;;;;;;17.17;75.78;95058.63;5024849;28;20248;-74
2023/05/24 05:39:49;;;;;;;13.47;9.20;;;;;;;17.28;75.53;95055.13;5035265;28;20238;-73
2023/05/24 05:42:15;;;;;;;16.17;9.27;;;;;;;17.24;75.39;95061.13;5015108;28;20868;-74
2023/05/24 05:44:40;;;;;;;15.17;9.40;;;;;;;17.33;76.98;95054.41;4996677;28;20237;-74
2023/05/24 05:47:07;;;;;;;22.30;9.60;;;;;;;17.04;75.49;95058.91;5029949;28;20226;-73
2023/05/24 05:49:35;;;;;;;15.03;9.80;;;;;;;16.93;76.09;95054.47;5016273;28;20234;-73
2023/05/24 05:52:03;;;;;;;14.63;9.40;;;;;;;17.17;76.37;95061.25;5016922;28;20225;-74
2023/05/24 05:54:29;;;;;;;17.03;9.40;;;;;;;17.09;75.20;95051.09;5029564;28;20727;-74
2023/05/24 05:56:55;;;;;;;17.67;9.07;;;;;;;16.96;74.77;95061.13;5009544;28;20242;-74
2023/05/24 05:59:20;;;;;;;16.13;9.80;;;;;;;17.24;75.00;95061.91;5005680;28;20253;-74
2023/05/24 06:01:47;;;;;;;15.43;9.20;;;;;;;17.03;76.07;95059.94;5033136;28;20230;-75
2023/05/24 06:04:15;;;;;;;16.10;9.33;;;;;;;16.85;75.41;95062.78;5009582;28;20281;-74
2023/05/24 06:06:40;;;;;;;16.87;9.53;;;;;;;16.53;75.87;95064.22;5009304;28;20262;-74
2023/05/24 06:09:06;;;;;;;17.90;9.93;;;;;;;16.48;76.37;95070.16;5027775;28;20226;-74
2023/05/24 06:11:32;;;;;;;16.77;9.77;;;;;;;16.74;76.40;95066.25;5017164;28;20230;-75
2023/05/24 06:13:57;;;;;;;16.47;9.40;;;;;;;16.71;75.82;95072.81;5002915;28;20253;-74
2023/05/24 06:16:23;;;;;;;17.47;8.90;;;;;;;16.94;75.86;95063.19;5024474;28;20641;-74
2023/05/24 06:18:48;;;;;;;15.80;9.23;;;;;;;17.00;76.96;95070.22;5032297;28;20287;-75
2023/05/24 06:21:14;;;;;;;18.00;8.60;;;;;;;17.17;76.84;95069.19;5015107;28;20233;-74
2023/05/24 06:23:40;;;;;;;16.20;9.20;;;;;;;17.23;76.44;95068.28;5032265;28;20642;-74
2023/05/24 06:26:08;;;;;;;14.33;8.70;;;;;;;17.44;77.25;95064.94;5027759;28;20222;-74
2023/05/24 06:28:36;;;;;;;17.40;8.37;;;;;;;17.64;74.06;95061.06;5031300;28;20222;-74
2023/05/24 06:31:03;;;;;;;16.50;8.80;;;;;;;17.82;74.06;95066.13;5023513;28;20257;-73
2023/05/24 06:33:28;;;;;;;13.87;8.13;;;;;;;17.85;72.82;95055.06;5029835;28;20233;-74
2023/05/24 06:35:54;;;;;;;17.43;8.80;;;;;;;17.92;72.44;95061.00;5001323;28;20741;-74
2023/05/24 06:38:19;;;;;;;17.80;8.57;;;;;;;17.95;74.83;95063.16;5041227;28;20216;-74
2023/05/24 06:40:45;;;;;;;17.20;9.50;;;;;;;17.91;75.55;95059.41;5040502;28;20618;-74
2023/05/24 06:43:10;;;;;;;19.47;9.50;;;;;;;17.95;75.36;95049.94;5012598;28;20235;-74
2023/05/24 06:45:38;;;;;;;13.80;8.77;;;;;;;18.02;75.94;95050.56;5030230;28;21067;-74
2023/05/24 06:48:04;;;;;;;13.67;8.83;;;;;;;18.11;75.42;95052.56;5040018;28;20264;-73
2023/05/24 06:50:29;;;;;;;18.00;9.33;;;;;;;18.11;75.08;95055.22;5033161;28;20790;-74
2023/05/24 06:52:55;;;;;;;16.43;8.90;;;;;;;18.08;74.09;95054.88;5002642;28;20228;-73
2023/05/24 06:55:20;;;;;;;15.67;9.23;;;;;;;18.23;73.30;95054.31;5007396;28;20782;-75
2023/05/24 06:57:46;;;;;;;18.10;9.00;;;;;;;18.27;73.75;95056.22;5010567;28;20264;-73
2023/05/24 07:00:12;;;;;;;12.93;7.60;;;;;;;18.35;73.05;95053.16;5030304;28;20229;-72
2023/05/24 07:02:38;;;;;;;17.30;9.37;;;;;;;18.41;72.35;95052.22;5013752;28;20325;-74
2023/05/24 07:05:05;;;;;;;14.77;8.40;;;;;;;18.38;74.34;95046.59;5023779;28;20339;-75
2023/05/24 07:07:31;;;;;;;19.97;9.57;;;;;;;18.38;73.72;95049.22;5013085;28;20257;-73
2023/05/24 07:09:56;;;;;;;16.93;9.50;;;;;;;18.46;72.29;95044.34;5033368;28;20766;-74
2023/05/24 07:12:22;;;;;;;17.47;9.73;;;;;;;18.46;72.04;95043.56;5031338;28;20225;-75
2023/05/24 07:14:47;;;;;;;16.47;9.37;;;;;;;18.48;72.41;95049.41;5032981;28;20315;-73
2023/05/24 07:17:13;;;;;;;17.17;9.40;;;;;;;18.53;72.27;95052.91;5013311;28;20237;-74
2023/05/24 07:19:39;;;;;;;16.37;9.53;;;;;;;18.63;71.42;95054.88;5014078;28;20242;-73
2023/05/24 07:22:04;;;;;;;17.00;8.83;;;;;;;18.78;73.18;95047.13;5027799;28;20242;-74
2023/05/24 07:24:30;;;;;;;20.70;8.73;;;;;;;18.78;72.77;95058.56;5034687;28;20241;-73
2023/05/24 07:26:56;;;;;;;18.97;8.83;;;;;;;18.84;72.88;95056.78;5018290;28;20234;-75
2023/05/24 07:29:22;;;;;;;21.17;9.00;;;;;;;18.78;69.06;95061.19;5016550;28;20717;-73
2023/05/24 07:31:47;;;;;;;21.07;8.70;;;;;;;18.89;70.81;95058.69;5032854;28;20234;-73
2023/05/24 07:34:13;;;;;;;16.53;8.50;;;;;;;18.97;70.71;95055.56;5016898;28;20240;-72
2023/05/24 07:36:39;;;;;;;13.53;7.70;;;;;;;19.07;69.90;95061.00;5028146;28;20234;-74
2023/05/24 07:39:08;;;;;;;20.77;8.40;;;;;;;18.97;69.45;95056.38;5031006;28;20240;-74
2023/05/24 07:41:34;;;;;;;14.60;8.20;;;;;;;19.21;69.53;95062.22;5001792;28;20229;-74
2023/05/24 07:44:00;;;;;;;16.00;7.77;;;;;;;19.23;69.41;95058.25;5016990;28;20233;-74
2023/05/24 07:46:25;;;;;;;14.90;6.90;;;;;;;19.34;66.37;95057.34;5012805;28;20231;-75
2023/05/24 07:48:52;;;;;;;13.53;6.93;;;;;;;19.53;66.59;95055.16;5017225;28;20848;-74
2023/05/24 07:51:17;;;;;;;15.83;6.93;;;;;;;19.57;67.39;95052.78;5030392;28;20226;-74
2023/05/24 07:53:42;;;;;;;14.27;7.10;;;;;;;19.68;67.60;95055.28;5005043;28;20600;-74
2023/05/24 07:56:10;;;;;;;14.10;7.10;;;;;;;19.69;67.29;95050.78;5017934;28;20233;-75
2023/05/24 07:58:36;;;;;;;15.53;7.57;;;;;;;19.75;65.43;95050.56;5019501;28;20238;-74
2023/05/24 08:01:02;;;;;;;15.40;7.20;;;;;;;19.83;65.90;95049.28;5044114;28;20252;-75
2023/05/24 08:03:28;;;;;;;10.70;7.00;;;;;;;19.99;64.59;95051.81;5035013;28;20229;-74
2023/05/24 08:05:54;;;;;;;18.60;7.93;;;;;;;20.11;64.24;95044.47;5020898;28;20278;-74
2023/05/24 08:08:19;;;;;;;18.37;8.63;;;;;;;20.13;63.08;95052.19;5021527;28;20226;-73
2023/05/24 08:10:45;;;;;;;14.77;9.03;;;;;;;20.29;63.58;95042.50;5033819;28;20228;-75
2023/05/24 08:13:10;;;;;;;16.83;8.60;;;;;;;20.51;64.14;95049.28;5034722;28;20714;-74
2023/05/24 08:15:36;;;;;;;14.97;8.00;;;;;;;20.60;66.08;95050.38;5021854;28;20663;-74
2023/05/24 08:18:02;;;;;;;15.67;7.97;;;;;;;20.63;64.32;95054.41;5026491;28;20232;-73
2023/05/24 08:20:27;;;;;;;15.67;8.30;;;;;;;20.72;64.45;95044.84;5029696;28;20242;-73
2023/05/24 08:22:53;;;;;;;11.40;7.30;;;;;;;20.81;63.09;95040.63;5033492;28;20771;-74
2023/05/24 08:25:18;;;;;;;12.77;7.30;;;;;;;20.91;59.34;95040.69;5028231;28;20227;-74
2023/05/24 08:27:44;;;;;;;14.10;6.03;;;;;;;21.20;55.89;95035.75;5032212;28;20628;-74
2023/05/24 08:30:11;;;;;;;9.87;5.80;;;;;;;21.40;54.17;95043.78;5020380;28;20620;-74
2023/05/24 08:32:37;;;;;;;9.20;5.30;;;;;;;21.47;54.54;95041.66;5031191;28;20225;-74
2023/05/24 08:35:02;;;;;;;16.17;6.50;;;;;;;21.53;53.55;95048.59;5017451;28;20230;-75
2023/05/24 08:37:30;;;;;;;7.93;4.60;;;;;;;21.51;51.80;95044.59;5029893;28;20241;-72
2023/05/24 08:39:56;;;;;;;10.80;4.93;;;;;;;21.52;53.62;95038.22;5009426;28;20747;-74
2023/05/24 08:42:21;;;;;;;10.90;5.10;;;;;;;21.63;53.11;95037.16;5026675;28;20241;-75
2023/05/24 08:44:48;;;;;;;8.47;4.90;;;;;;;21.66;50.79;95039.31;5004686;28;20237;-74
2023/05/24 08:47:14;;;;;;;9.67;4.87;;;;;;;21.67;52.97;95035.56;5030997;28;20305;-74
2023/05/24 08:49:40;;;;;;;7.67;5.13;;;;;;;21.80;51.67;95035.03;5032553;28;20289;-74
2023/05/24 08:52:10;;;;;;;11.03;5.07;;;;;;;21.87;50.76;95041.75;5031290;28;20314;-73
2023/05/24 08:54:36;;;;;;;6.60;4.30;;;;;;;22.01;48.91;95040.13;5017856;28;20244;-74
2023/05/24 08:57:02;;;;;;;7.83;4.23;;;;;;;21.95;49.10;95037.72;5012380;28;20322;-74
2023/05/24 08:59:27;;;;;;;7.37;4.40;;;;;;;22.09;49.61;95031.59;5006686;28;20241;-74
2023/05/24 09:01:53;;;;;;;5.90;3.70;;;;;;;22.45;46.54;95036.88;5035859;28;20232;-73
2023/05/24 09:04:20;;;;;;;6.67;3.57;;;;;;;22.38;47.61;95036.38;5015189;28;20238;-72
2023/05/24 09:06:46;;;;;;;5.97;3.90;;;;;;;22.45;48.92;95034.22;5018806;28;20245;-74
2023/05/24 09:09:12;;;;;;;6.33;4.03;;;;;;;22.47;48.58;95032.88;5008831;28;20230;-73
2023/05/24 09:11:39;;;;;;;7.03;3.90;;;;;;;22.58;47.02;95039.78;5019906;28;20225;-74
2023/05/24 09:14:04;;;;;;;8.20;4.20;;;;;;;22.41;47.84;95041.16;5031559;28;20719;-74
2023/05/24 09:16:30;;;;;;;16.97;4.53;;;;;;;22.61;46.81;95036.63;5036381;28;20295;-74
2023/05/24 09:18:55;;;;;;;7.43;4.10;;;;;;;22.74;48.54;95037.88;5025619;28;20229;-72
2023/05/24 09:21:21;;;;;;;7.13;4.07;;;;;;;22.82;44.74;95041.88;5030617;28;20222;-73
2023/05/24 09:23:46;;;;;;;9.50;3.83;;;;;;;22.96;47.87;95030.34;5021959;28;20284;-73
2023/05/24 09:26:12;;;;;;;6.72;3.90;;;;;;;22.98;43.97;95038.06;5025567;28;20225;-72
2023/05/24 09:28:37;;;;;;;6.72;4.10;;;;;;;22.82;46.60;95037.34;5024253;28;20313;-73
2023/05/24 09:31:03;;;;;;;7.20;3.87;;;;;;;22.91;47.38;95029.53;5034551;28;20283;-73
2023/05/24 09:33:31;;;;;;;7.22;3.80;;;;;;;23.21;44.88;95032.91;5028354;28;20606;-72
2023/05/24 09:36:02;;;;;;;5.35;3.78;;;;;;;23.34;49.66;95029.59;5031785;28;20990;-73
2023/05/24 09:38:28;;;;;;;6.32;3.47;;;;;;;23.35;45.79;95028.56;5030363;28;20226;-73
2023/05/24 09:41:01;;;;;;;6.80;3.67;;;;;;;23.46;46.02;95029.31;5017062;28;20237;-72
2023/05/24 09:43:28;;;;;;;5.88;3.70;;;;;;;23.54;46.75;95025.25;5001543;28;20226;-74
2023/05/24 09:45:54;;;;;;;8.32;4.18;;;;;;;23.57;48.76;95028.19;5031769;28;20317;-73
2023/05/24 09:48:20;;;;;;;7.32;3.70;;;;;;;23.67;44.58;95024.63;5030497;28;20229;-74
2023/05/24 09:51:00;;;;;;;5.13;3.88;;;;;;;23.57;45.45;95025.50;5031238;28;20295;-76
2023/05/24 09:53:25;;;;;;;4.88;3.63;;;;;;;23.50;45.51;95019.66;5018532;28;20237;-74
2023/05/24 09:55:52;;;;;;;5.13;3.60;;;;;;;23.64;44.27;95019.84;5030006;28;20226;-73
2023/05/24 09:58:17;;;;;;;6.07;3.60;;;;;;;23.57;46.66;95025.50;5008441;28;20244;-73
2023/05/24 10:00:42;;;;;;;5.07;3.90;;;;;;;23.60;42.03;95021.44;5036171;28;20221;-73
2023/05/24 10:03:13;;;;;;;6.15;3.78;;;;;;;23.76;44.11;95026.44;5015663;28;20222;-73
2023/05/24 10:05:41;;;;;;;5.22;3.63;;;;;;;23.77;40.81;95022.66;5032205;28;20313;-73
2023/05/24 10:08:08;;;;;;;7.10;4.30;;;;;;;23.88;41.73;95021.50;5031097;28;20228;-71
2023/05/24 10:10:33;;;;;;;8.57;4.13;;;;;;;24.02;41.91;95022.47;5033654;28;20754;-72
2023/05/24 10:13:00;;;;;;;5.60;3.80;;;;;;;23.89;43.45;95012.41;5030814;28;20233;-73
2023/05/24 10:15:26;;;;;;;6.05;4.18;;;;;;;24.04;43.02;95011.50;5041384;28;20264;-74
2023/05/24 10:17:52;;;;;;;6.43;3.92;;;;;;;24.11;44.41;95017.34;5030817;28;20253;-73
2023/05/24 10:20:18;;;;;;;6.38;4.15;;;;;;;24.14;44.69;95003.41;5028416;28;20237;-74
2023/05/24 10:22:45;;;;;;;5.93;3.78;;;;;;;24.14;42.65;95013.31;5017830;28;20229;-73
2023/05/24 10:25:21;;;;;;;8.32;3.88;;;;;;;24.29;42.91;95007.81;5017003;28;20313;-73
2023/05/24 10:27:48;;;;;;;6.22;3.80;;;;;;;24.38;40.61;95006.94;5016970;28;20228;-74
2023/05/24 10:30:35;;;;;;;5.93;3.60;;;;;;;24.27;37.97;95002.75;5031318;28;20234;-73
2023/05/24 10:33:00;;;;;;;6.25;3.80;;;;;;;24.14;38.96;94999.94;5019744;28;20300;-73
2023/05/24 10:35:26;;;;;;;5.50;3.90;;;;;;;24.31;39.97;95000.31;5016139;28;20237;-74
2023/05/24 10:37:53;;;;;;;6.72;3.92;;;;;;;24.20;41.09;94993.44;5016506;28;20229;-74
2023/05/24 10:40:19;;;;;;;8.07;3.60;;;;;;;24.31;39.70;94994.97;5022616;28;20240;-74
2023/05/24 10:42:45;;;;;;;8.75;3.70;;;;;;;24.39;38.44;94994.31;5024922;28;20312;-74
2023/05/24 10:45:31;;;;;;;7.82;3.80;;;;;;;24.55;38.08;94983.16;5016536;28;20824;-75
2023/05/24 10:48:00;;;;;;;6.50;3.50;;;;;;;24.44;37.75;94983.56;5032499;28;20221;-74
2023/05/24 10:50:26;;;;;;;6.72;3.83;;;;;;;24.52;38.41;94983.75;5013464;28;20285;-75
2023/05/24 10:53:09;;;;;;;4.65;3.53;;;;;;;24.50;39.45;94980.56;5029544;28;20960;-73
2023/05/24 10:55:35;;;;;;;6.32;3.80;;;;;;;24.75;40.07;94982.13;5015402;28;20250;-74
2023/05/24 10:58:00;;;;;;;8.45;4.00;;;;;;;24.77;38.19;94974.66;5028503;28;20276;-74
2023/05/24 11:00:27;;;;;;;7.28;3.92;;;;;;;24.68;39.40;94973.66;5032999;28;20717;-73
2023/05/24 11:03:07;;;;;;;7.22;3.97;;;;;;;24.61;39.24;94968.66;5033673;28;20218;-72
2023/05/24 11:05:51;;;;;;;6.75;3.70;;;;;;;24.68;41.26;94970.97;5029894;28;20229;-74
2023/05/24 11:08:32;;;;;;;9.68;3.85;;;;;;;24.66;38.92;94970.47;5038359;28;20226;-74
2023/05/24 11:11:10;;;;;;;7.65;3.97;;;;;;;24.83;40.38;94962.81;5039870;28;20233;-74
2023/05/24 11:13:37;;;;;;;5.63;3.63;;;;;;;24.87;40.16;94974.53;5023197;28;20241;-74
2023/05/24 11:16:03;;;;;;;6.35;3.80;;;;;;;24.85;40.87;94970.53;5026185;28;20253;-72
2023/05/24 11:18:28;;;;;;;8.30;4.10;;;;;;;24.76;37.80;94978.41;5019035;28;20316;-74
2023/05/24 11:20:55;;;;;;;8.18;3.70;;;;;;;24.79;39.68;94972.47;5017480;28;20619;-74
2023/05/24 11:23:21;;;;;;;6.45;3.80;;;;;;;24.91;40.23;94964.81;5010731;28;20229;-74
2023/05/24 11:25:47;;;;;;;8.07;4.00;;;;;;;24.97;39.22;94968.25;5017989;28;20230;-74